createdAt,value
2018-07-11T00:00:47.233Z,52.70
2018-07-11T00:03:16.983Z,52.90
2018-07-11T00:05:45.446Z,52.90
2018-07-11T00:08:13.777Z,52.80
2018-07-11T00:10:42.117Z,53.30
2018-07-11T00:13:10.581Z,53.20
2018-07-11T00:15:38.923Z,53.20
2018-07-11T00:18:07.382Z,53.20
2018-07-11T00:20:35.782Z,53.20
2018-07-11T00:23:04.222Z,53.40
2018-07-11T00:25:32.678Z,53.60
2018-07-11T00:28:01.110Z,54.60
2018-07-11T00:30:29.551Z,53.80
2018-07-11T00:32:57.918Z,53.60
2018-07-11T00:35:26.442Z,53.50
2018-07-11T00:37:54.882Z,54.10
2018-07-11T00:42:51.768Z,54.90
2018-07-11T00:47:50.474Z,54.60
2018-07-11T00:50:18.948Z,54.30
2018-07-11T00:52:47.334Z,54.30
2018-07-11T00:55:15.906Z,54.60
2018-07-11T01:00:12.784Z,55.10
2018-07-11T01:02:41.317Z,55.40
2018-07-11T01:05:09.697Z,55.50
2018-07-11T01:07:38.213Z,55.70
2018-07-11T01:10:07.340Z,55.80
2018-07-11T01:12:35.786Z,56.00
2018-07-11T01:15:04.257Z,56.00
2018-07-11T01:17:40.841Z,56.90
2018-07-11T01:20:09.383Z,56.60
2018-07-11T01:25:09.156Z,56.20
2018-07-11T01:30:06.162Z,56.40
2018-07-11T01:35:04.013Z,56.40
2018-07-11T01:37:32.517Z,56.30
2018-07-11T01:40:00.977Z,56.00
2018-07-11T01:42:29.409Z,55.70
2018-07-11T01:44:57.798Z,55.50
2018-07-11T01:47:26.828Z,55.40
2018-07-11T01:49:55.273Z,55.30
2018-07-11T01:52:57.382Z,55.40
2018-07-11T01:55:26.549Z,55.80
2018-07-11T01:57:58.903Z,55.60
2018-07-11T02:02:56.387Z,55.50
2018-07-11T02:05:26.065Z,55.30
2018-07-11T02:07:54.961Z,55.70
2018-07-11T02:10:23.818Z,55.80
2018-07-11T02:12:52.167Z,56.00
2018-07-11T02:17:49.548Z,56.20
2018-07-11T02:20:18.191Z,56.30
2018-07-11T02:22:50.376Z,56.50
2018-07-11T02:25:19.866Z,56.70
2018-07-11T02:27:48.837Z,56.90
2018-07-11T02:30:17.570Z,56.70
2018-07-11T02:32:45.967Z,57.20
2018-07-11T02:35:14.483Z,57.50
2018-07-11T02:37:42.829Z,57.60
2018-07-11T02:40:11.142Z,57.50
2018-07-11T02:45:07.761Z,57.10
2018-07-11T02:50:11.912Z,57.20
2018-07-11T02:52:40.917Z,56.80
2018-07-11T02:57:37.483Z,56.80
2018-07-11T03:00:06.037Z,57.30
2018-07-11T03:02:34.413Z,57.50
2018-07-11T03:07:31.037Z,57.20
2018-07-11T03:09:59.409Z,57.50
2018-07-11T03:12:27.784Z,57.50
2018-07-11T03:14:56.150Z,57.60
2018-07-11T03:17:24.466Z,57.40
2018-07-11T03:19:52.837Z,57.50
2018-07-11T03:22:21.233Z,57.60
2018-07-11T03:27:18.222Z,57.80
2018-07-11T03:29:46.537Z,58.20
2018-07-11T03:32:15.117Z,58.30
2018-07-11T03:34:43.606Z,58.20
2018-07-11T03:37:12.000Z,58.30
2018-07-11T03:39:41.201Z,58.40
2018-07-11T03:42:10.219Z,58.20
2018-07-11T03:44:38.772Z,57.90
2018-07-11T03:47:07.230Z,58.00
2018-07-11T03:49:35.608Z,57.70
2018-07-11T03:52:04.765Z,58.10
2018-07-11T03:54:34.069Z,57.90
2018-07-11T03:57:02.453Z,57.90
2018-07-11T03:59:30.752Z,58.20
2018-07-11T04:01:59.225Z,58.50
2018-07-11T04:04:27.598Z,58.90
2018-07-11T04:06:55.920Z,58.90
2018-07-11T04:09:24.432Z,59.80
2018-07-11T04:11:53.026Z,59.30
2018-07-11T04:14:22.210Z,59.90
2018-07-11T04:19:18.718Z,59.20
2018-07-11T04:21:47.095Z,59.20
2018-07-11T04:24:15.469Z,59.40
2018-07-11T04:26:43.911Z,59.80
2018-07-11T04:29:12.400Z,59.80
2018-07-11T04:31:40.725Z,60.00
2018-07-11T04:34:09.155Z,60.00
2018-07-11T04:36:37.590Z,59.90
2018-07-11T04:39:06.000Z,60.10
2018-07-11T04:41:34.414Z,60.40
2018-07-11T04:46:31.180Z,61.10
2018-07-11T04:48:59.901Z,60.60
2018-07-11T04:51:28.330Z,60.00
2018-07-11T04:53:56.813Z,60.00
2018-07-11T04:56:26.173Z,60.00
2018-07-11T04:58:54.595Z,60.30
2018-07-11T05:01:22.926Z,60.90
2018-07-11T05:03:51.366Z,61.10
2018-07-11T05:06:19.734Z,60.60
2018-07-11T05:11:16.343Z,60.60
2018-07-11T05:13:44.677Z,61.00
2018-07-11T05:16:13.108Z,61.70
2018-07-11T05:21:13.104Z,61.30
2018-07-11T05:23:41.450Z,61.00
2018-07-11T05:26:09.754Z,61.30
2018-07-11T05:28:38.140Z,61.20
2018-07-11T05:31:06.449Z,61.40
2018-07-11T05:33:34.891Z,61.50
2018-07-11T05:36:03.236Z,61.80
2018-07-11T05:40:59.997Z,63.10
2018-07-11T05:43:28.364Z,62.50
2018-07-11T05:45:56.785Z,63.50
2018-07-11T05:48:26.038Z,63.50
2018-07-11T05:50:54.479Z,63.90
2018-07-11T05:53:22.882Z,64.50
2018-07-11T05:55:51.316Z,65.40
2018-07-11T05:58:19.802Z,66.10
2018-07-11T06:00:48.247Z,66.20
2018-07-11T06:03:16.536Z,65.20
2018-07-11T06:05:44.984Z,66.70
2018-07-11T06:10:42.450Z,66.10
2018-07-11T06:15:39.286Z,65.60
2018-07-11T06:18:07.787Z,63.40
2018-07-11T06:20:36.130Z,62.20
2018-07-11T06:23:04.645Z,61.50
2018-07-11T06:25:33.057Z,60.80
2018-07-11T06:28:01.415Z,60.10
2018-07-11T06:30:29.801Z,60.20
2018-07-11T06:32:58.244Z,60.40
2018-07-11T06:37:55.009Z,60.80
2018-07-11T06:40:23.507Z,60.10
2018-07-11T06:42:51.960Z,60.30
2018-07-11T06:45:20.343Z,60.70
2018-07-11T06:50:16.997Z,59.80
2018-07-11T06:52:45.340Z,60.00
2018-07-11T06:55:14.063Z,59.30
2018-07-11T06:57:43.359Z,59.80
2018-07-11T07:00:11.604Z,59.90
2018-07-11T07:02:40.009Z,61.50
2018-07-11T07:05:08.385Z,63.40
2018-07-11T07:10:06.178Z,63.20
2018-07-11T07:12:34.609Z,63.50
2018-07-11T07:15:03.073Z,63.10
2018-07-11T07:17:31.467Z,63.30
2018-07-11T07:19:59.895Z,63.70
2018-07-11T07:22:32.525Z,63.70
2018-07-11T07:25:00.904Z,63.20
2018-07-11T07:27:29.339Z,61.80
2018-07-11T07:29:57.733Z,62.00
2018-07-11T07:32:26.168Z,62.50
2018-07-11T07:34:54.588Z,61.80
2018-07-11T07:37:23.031Z,61.20
2018-07-11T07:42:19.766Z,60.80
2018-07-11T07:44:48.226Z,59.90
2018-07-11T07:47:22.298Z,60.00
2018-07-11T07:49:50.834Z,60.70
2018-07-11T07:52:19.373Z,60.00
2018-07-11T07:54:47.834Z,59.90
2018-07-11T07:57:16.363Z,60.00
2018-07-11T07:59:44.939Z,59.60
2018-07-11T08:02:13.477Z,59.10
2018-07-11T08:04:41.896Z,59.20
2018-07-11T08:07:10.351Z,59.20
2018-07-11T08:09:38.680Z,57.80
2018-07-11T08:12:07.080Z,57.00
2018-07-11T08:14:35.486Z,57.30
2018-07-11T08:17:03.888Z,56.10
2018-07-11T08:19:32.189Z,57.00
2018-07-11T08:23:18.796Z,57.60
2018-07-11T08:26:04.884Z,56.70
2018-07-11T08:34:49.197Z,57.30
2018-07-11T08:41:48.498Z,55.10
2018-07-11T08:47:36.354Z,54.50
2018-07-11T08:50:30.313Z,53.50
2018-07-11T08:53:24.533Z,54.70
2018-07-11T08:56:07.545Z,55.90
2018-07-11T09:00:58.017Z,54.80
2018-07-11T09:05:45.767Z,54.80
2018-07-11T09:10:38.951Z,54.50
2018-07-11T09:13:43.605Z,51.40
2018-07-11T09:18:29.610Z,52.80
2018-07-11T09:23:17.258Z,51.70
2018-07-11T09:25:45.604Z,51.80
2018-07-11T09:28:13.963Z,52.60
2018-07-11T09:30:42.365Z,52.70
2018-07-11T09:33:10.849Z,52.60
2018-07-11T09:35:39.261Z,52.40
2018-07-11T09:38:07.559Z,52.10
2018-07-11T09:40:35.980Z,51.40
2018-07-11T09:43:04.530Z,50.30
2018-07-11T09:45:32.929Z,51.10
2018-07-11T09:48:01.329Z,49.60
2018-07-11T09:50:29.741Z,49.20
2018-07-11T09:52:58.273Z,49.20
2018-07-11T09:55:26.830Z,49.10
2018-07-11T09:57:55.384Z,49.40
2018-07-11T10:00:29.434Z,48.60
2018-07-11T10:05:26.307Z,48.10
2018-07-11T10:07:54.826Z,47.60
2018-07-11T10:10:23.223Z,47.90
2018-07-11T10:12:52.246Z,47.70
2018-07-11T10:15:20.634Z,48.20
2018-07-11T10:20:17.358Z,47.40
2018-07-11T10:22:45.809Z,47.20
2018-07-11T10:25:14.175Z,46.50
2018-07-11T10:27:43.489Z,45.60
2018-07-11T10:30:11.961Z,43.70
2018-07-11T10:32:40.301Z,44.00
2018-07-11T10:35:08.674Z,43.90
2018-07-11T10:37:37.109Z,44.30
2018-07-11T10:40:05.603Z,43.30
2018-07-11T10:42:34.126Z,44.10
2018-07-11T10:45:02.591Z,44.40
2018-07-11T10:47:31.119Z,45.20
2018-07-11T10:49:59.489Z,45.70
2018-07-11T10:52:27.862Z,45.30
2018-07-11T10:54:56.354Z,45.50
2018-07-11T10:57:24.779Z,45.90
2018-07-11T10:59:53.244Z,47.00
2018-07-11T11:02:22.709Z,47.60
2018-07-11T11:04:51.229Z,47.70
2018-07-11T11:07:19.654Z,47.90
2018-07-11T11:09:48.157Z,48.50
2018-07-11T11:12:16.570Z,48.50
2018-07-11T11:14:45.034Z,48.60
2018-07-11T11:17:13.423Z,49.00
2018-07-11T11:19:41.821Z,48.90
2018-07-11T11:22:10.250Z,48.20
2018-07-11T11:24:38.758Z,47.70
2018-07-11T11:27:07.220Z,48.60
2018-07-11T11:29:35.574Z,49.50
2018-07-11T11:32:04.027Z,49.40
2018-07-11T11:34:32.437Z,49.40
2018-07-11T11:37:00.861Z,49.30
2018-07-11T11:39:29.317Z,48.50
2018-07-11T11:41:57.792Z,48.50
2018-07-11T11:44:26.169Z,49.00
2018-07-11T11:46:59.101Z,48.50
2018-07-11T11:51:56.040Z,47.60
2018-07-11T11:54:24.578Z,46.60
2018-07-11T11:56:53.354Z,44.90
2018-07-11T11:59:22.594Z,44.00
2018-07-11T12:01:51.166Z,44.60
2018-07-11T12:04:19.630Z,43.70
2018-07-11T12:06:48.241Z,43.80
2018-07-11T12:09:17.120Z,43.90
2018-07-11T12:11:45.613Z,43.50
2018-07-11T12:14:14.762Z,44.80
2018-07-11T12:16:43.731Z,44.70
2018-07-11T12:19:12.165Z,43.70
2018-07-11T12:21:41.126Z,43.70
2018-07-11T12:24:09.619Z,44.00
2018-07-11T12:26:38.064Z,45.20
2018-07-11T12:29:06.505Z,46.00
2018-07-11T12:31:34.925Z,46.20
2018-07-11T12:34:03.394Z,45.80
2018-07-11T12:36:32.211Z,46.30
2018-07-11T12:39:00.639Z,45.90
2018-07-11T12:41:29.048Z,46.70
2018-07-11T12:43:57.460Z,44.90
2018-07-11T12:46:25.925Z,46.20
2018-07-11T12:48:59.784Z,44.70
2018-07-11T12:51:28.306Z,44.20
2018-07-11T12:53:56.766Z,44.10
2018-07-11T12:56:26.420Z,44.10
2018-07-11T12:58:55.446Z,44.20
2018-07-11T13:01:23.968Z,45.20
2018-07-11T13:03:55.122Z,45.50
2018-07-11T13:06:25.414Z,45.40
2018-07-11T13:08:53.811Z,45.60
2018-07-11T13:11:22.272Z,45.80
2018-07-11T13:13:51.286Z,46.60
2018-07-11T13:16:19.761Z,46.50
2018-07-11T13:18:48.475Z,46.70
2018-07-11T13:21:16.954Z,46.40
2018-07-11T13:26:14.008Z,45.70
2018-07-11T13:28:42.382Z,45.20
2018-07-11T13:31:10.930Z,44.20
2018-07-11T13:33:42.029Z,45.00
2018-07-11T13:36:10.517Z,44.70
2018-07-11T13:38:38.933Z,45.00
2018-07-11T13:41:07.653Z,44.90
2018-07-11T13:43:36.021Z,45.60
2018-07-11T13:46:04.608Z,45.80
2018-07-11T13:48:33.004Z,46.20
2018-07-11T13:51:01.383Z,47.00
2018-07-11T13:53:30.411Z,47.30
2018-07-11T13:55:59.189Z,47.00
2018-07-11T13:58:27.746Z,47.20
2018-07-11T14:00:56.835Z,47.10
2018-07-11T14:03:25.319Z,46.90
2018-07-11T14:05:53.845Z,47.00
2018-07-11T14:08:22.339Z,47.10
2018-07-11T14:10:50.912Z,46.30
2018-07-11T14:13:19.612Z,45.90
2018-07-11T14:15:48.049Z,44.00
2018-07-11T14:20:44.705Z,44.00
2018-07-11T14:25:41.991Z,43.80
2018-07-11T14:28:10.493Z,44.20
2018-07-11T14:30:39.236Z,42.30
2018-07-11T14:33:08.953Z,42.00
2018-07-11T14:35:37.340Z,42.40
2018-07-11T14:38:05.729Z,42.40
2018-07-11T14:40:34.210Z,42.20
2018-07-11T14:43:02.686Z,42.50
2018-07-11T14:45:33.092Z,42.50
2018-07-11T14:48:07.112Z,42.60
2018-07-11T14:50:35.651Z,43.20
2018-07-11T14:53:05.004Z,41.90
2018-07-11T14:55:33.617Z,41.80
2018-07-11T14:58:02.006Z,40.20
2018-07-11T15:00:31.126Z,41.20
2018-07-11T15:02:59.781Z,40.70
2018-07-11T15:05:28.448Z,41.20
2018-07-11T15:07:57.234Z,41.10
2018-07-11T15:10:26.007Z,40.30
2018-07-11T15:12:54.460Z,40.20
2018-07-11T15:15:22.925Z,39.70
2018-07-11T15:17:51.348Z,39.70
2018-07-11T15:20:19.840Z,40.60
2018-07-11T15:22:48.234Z,40.30
2018-07-11T15:25:17.324Z,40.20
2018-07-11T15:27:45.807Z,39.90
2018-07-11T15:30:14.280Z,40.10
2018-07-11T15:32:42.813Z,39.80
2018-07-11T15:35:11.226Z,39.60
2018-07-11T15:37:39.768Z,39.30
2018-07-11T15:40:08.253Z,39.70
2018-07-11T15:42:36.770Z,38.40
2018-07-11T15:45:05.804Z,37.40
2018-07-11T15:47:35.960Z,36.50
2018-07-11T15:50:04.532Z,36.60
2018-07-11T15:52:33.677Z,36.70
2018-07-11T15:55:04.674Z,36.70
2018-07-11T15:57:37.490Z,36.70
2018-07-11T16:00:11.365Z,37.20
2018-07-11T16:02:46.707Z,37.20
2018-07-11T16:05:19.713Z,37.40
2018-07-11T16:07:50.273Z,37.70
2018-07-11T16:10:27.968Z,37.40
2018-07-11T16:12:56.488Z,38.20
2018-07-11T16:15:24.937Z,38.00
2018-07-11T16:17:53.339Z,38.10
2018-07-11T16:20:21.877Z,38.20
2018-07-11T16:22:50.374Z,38.20
2018-07-11T16:25:18.846Z,37.50
2018-07-11T16:27:47.730Z,36.80
2018-07-11T16:30:19.074Z,37.20
2018-07-11T16:32:47.451Z,37.50
2018-07-11T16:35:15.902Z,36.30
2018-07-11T16:37:44.383Z,36.90
2018-07-11T16:40:12.884Z,36.70
2018-07-11T16:42:42.011Z,36.30
2018-07-11T16:45:10.404Z,36.30
2018-07-11T16:47:38.993Z,36.40
2018-07-11T16:50:07.755Z,36.30
2018-07-11T16:52:36.452Z,37.00
2018-07-11T16:55:04.877Z,36.70
2018-07-11T16:57:44.204Z,37.50
2018-07-11T17:00:12.703Z,37.20
2018-07-11T17:02:43.934Z,37.30
2018-07-11T17:05:18.885Z,37.80
2018-07-11T17:07:51.935Z,37.10
2018-07-11T17:10:22.424Z,37.00
2018-07-11T17:12:59.844Z,37.00
2018-07-11T17:15:31.286Z,37.20
2018-07-11T17:17:59.970Z,37.20
2018-07-11T17:20:28.610Z,37.30
2018-07-11T17:23:05.093Z,37.60
2018-07-11T17:28:08.913Z,39.00
2018-07-11T17:33:08.909Z,40.00
2018-07-11T17:35:52.019Z,40.20
2018-07-11T17:38:26.070Z,40.30
2018-07-11T17:40:55.762Z,40.50
2018-07-11T17:43:32.834Z,40.90
2018-07-11T17:46:02.356Z,41.00
2018-07-11T17:48:59.375Z,41.30
2018-07-11T17:51:43.864Z,41.40
2018-07-11T17:54:12.595Z,41.40
2018-07-11T17:56:54.740Z,41.00
2018-07-11T18:01:36.136Z,41.20
2018-07-11T18:06:27.145Z,41.10
2018-07-11T18:09:07.225Z,40.90
2018-07-11T18:11:52.241Z,41.00
2018-07-11T18:14:43.803Z,41.40
2018-07-11T18:17:22.651Z,41.40
2018-07-11T18:20:26.394Z,41.70
2018-07-11T18:23:17.585Z,41.80
2018-07-11T18:26:07.874Z,41.60
2018-07-11T18:28:53.531Z,41.80
2018-07-11T18:31:41.229Z,42.00
2018-07-11T18:36:32.440Z,42.10
2018-07-11T18:40:08.209Z,42.30
2018-07-11T18:43:51.568Z,42.50
2018-07-11T18:47:01.736Z,42.70
2018-07-11T18:49:38.046Z,42.90
2018-07-11T18:52:17.825Z,42.80
2018-07-11T18:56:16.044Z,43.00
2018-07-11T18:59:03.271Z,43.00
2018-07-11T19:01:55.047Z,43.50
2018-07-11T19:04:48.569Z,43.50
2018-07-11T19:09:26.775Z,43.30
2018-07-11T19:11:56.902Z,43.60
2018-07-11T19:14:37.287Z,43.70
2018-07-11T19:17:23.908Z,43.80
2018-07-11T19:21:12.774Z,44.30
2018-07-11T19:24:02.494Z,44.30
2018-07-11T19:26:47.980Z,44.30
2018-07-11T19:37:33.179Z,44.20
2018-07-11T19:40:46.488Z,44.20
2018-07-11T19:44:32.559Z,44.60
2018-07-11T19:47:12.917Z,45.00
2018-07-11T19:49:55.995Z,45.30
2018-07-11T19:54:09.663Z,46.00
2018-07-11T19:56:43.927Z,46.70
2018-07-11T19:59:12.864Z,46.90
2018-07-11T20:01:41.657Z,46.90
2018-07-11T20:04:11.711Z,47.00
2018-07-11T20:06:40.205Z,47.40
2018-07-11T20:14:06.262Z,47.40
2018-07-11T20:16:35.581Z,47.20
2018-07-11T20:19:04.175Z,47.70
2018-07-11T20:21:32.733Z,47.80
2018-07-11T20:24:01.315Z,48.00
2018-07-11T20:28:59.322Z,48.50
2018-07-11T20:31:27.946Z,48.60
2018-07-11T20:33:56.469Z,49.20
2018-07-11T20:36:24.935Z,49.20
2018-07-11T20:41:21.866Z,48.90
2018-07-11T20:43:50.459Z,49.20
2018-07-11T20:46:19.173Z,49.00
2018-07-11T20:48:47.747Z,48.80
2018-07-11T20:51:22.827Z,49.00
2018-07-11T20:56:19.592Z,48.70
2018-07-11T20:59:04.999Z,48.80
2018-07-11T21:01:50.276Z,48.90
2018-07-11T21:05:39.857Z,49.00
2018-07-11T21:10:34.407Z,49.40
2018-07-11T21:13:24.622Z,49.60
2018-07-11T21:19:16.625Z,49.80
2018-07-11T21:21:45.100Z,49.80
2018-07-11T21:26:42.266Z,50.30
2018-07-11T21:29:10.853Z,50.20
2018-07-11T21:31:39.275Z,50.40
2018-07-11T21:34:07.789Z,50.30
2018-07-11T21:36:36.316Z,50.40
2018-07-11T21:39:05.294Z,51.00
2018-07-11T21:41:35.531Z,51.10
2018-07-11T21:44:04.083Z,51.10
2018-07-11T21:46:32.583Z,51.70
2018-07-11T21:49:00.927Z,52.10
2018-07-11T21:51:29.416Z,52.10
2018-07-11T21:53:57.839Z,52.50
2018-07-11T21:56:26.228Z,52.80
2018-07-11T21:58:55.780Z,52.80
2018-07-11T22:01:24.182Z,52.70
2018-07-11T22:03:52.629Z,52.70
2018-07-11T22:06:21.020Z,52.80
2018-07-11T22:11:17.771Z,52.70
2018-07-11T22:13:46.201Z,52.70
2018-07-11T22:16:14.586Z,52.70
2018-07-11T22:18:44.228Z,52.70
2018-07-11T22:21:11.905Z,52.60
2018-07-11T22:23:38.679Z,52.60
2018-07-11T22:26:05.335Z,52.60
2018-07-11T22:28:32.002Z,52.60
2018-07-11T22:30:58.684Z,52.50
2018-07-11T22:33:25.348Z,52.90
2018-07-11T22:35:51.981Z,53.20
2018-07-11T22:38:18.612Z,53.00
2018-07-11T22:40:45.661Z,53.00
2018-07-11T22:43:12.266Z,53.10
2018-07-11T22:45:38.889Z,53.20
2018-07-11T22:48:05.506Z,53.30
2018-07-11T22:50:32.093Z,53.30
2018-07-11T22:52:58.697Z,53.20
2018-07-11T22:55:25.338Z,52.70
2018-07-11T22:57:52.361Z,52.40
2018-07-11T23:00:18.977Z,52.70
2018-07-11T23:02:45.597Z,52.40
2018-07-11T23:05:12.219Z,52.50
2018-07-11T23:07:38.842Z,52.80
2018-07-11T23:10:05.498Z,52.80
2018-07-11T23:12:32.133Z,52.50
2018-07-11T23:14:58.784Z,52.50
2018-07-11T23:17:25.453Z,52.50
2018-07-11T23:19:52.142Z,52.70
2018-07-11T23:22:18.765Z,52.90
2018-07-11T23:24:45.378Z,53.20
2018-07-11T23:27:11.986Z,53.50
2018-07-11T23:29:38.590Z,53.80
2018-07-11T23:32:05.188Z,53.60
2018-07-11T23:34:31.805Z,53.60
2018-07-11T23:36:58.430Z,53.20
2018-07-11T23:41:52.145Z,52.50
2018-07-11T23:44:18.767Z,53.00
2018-07-11T23:49:12.485Z,53.20
2018-07-11T23:51:39.575Z,52.70
2018-07-11T23:54:06.157Z,52.50
2018-07-11T23:56:32.763Z,52.50
2018-07-11T23:58:59.397Z,52.60
